Time;durP1;ratioP1;P1;durP2;ratioP2;P2;SDS_P1;SDS_P2;PMS_P1;PMS_P2;Temp;Humidity;BMP_temperature;BMP_pressure;BME280_temperature;BME280_humidity;BME280_pressure;Samples;Min_cycle;Max_cycle;Signal;HPM_P1;HPM_P2
2023/11/21 00:00:12;;;;;;;1.20;1.10;;;9.20;99.90;;;9.98;100.00;97325.88;5014216;28;20520;-80
2023/11/21 00:02:41;;;;;;;1.53;0.90;;;9.10;99.90;;;10.00;100.00;97326.47;5015875;28;20453;-80
2023/11/21 00:05:14;;;;;;;2.20;1.27;;;9.10;99.90;;;10.00;100.00;97317.81;5015657;28;20491;-81
2023/11/21 00:07:44;;;;;;;1.33;0.87;;;9.10;99.90;;;9.97;100.00;97326.88;5014330;28;20463;-80
2023/11/21 00:10:16;;;;;;;1.37;1.00;;;9.20;99.90;;;9.98;100.00;97325.06;5015958;28;20474;-81
2023/11/21 00:12:48;;;;;;;4.17;1.10;;;9.20;99.90;;;9.97;100.00;97323.44;5019243;28;21222;-80
2023/11/21 00:15:16;;;;;;;1.93;1.10;;;9.10;99.90;;;9.97;100.00;97318.22;5017358;28;20471;-80
2023/11/21 00:17:44;;;;;;;6.77;1.00;;;9.20;99.90;;;9.98;100.00;97322.44;5018368;28;20465;-80
2023/11/21 00:20:14;;;;;;;1.70;0.90;;;9.10;99.90;;;10.00;100.00;97325.66;5018247;28;20573;-80
2023/11/21 00:22:43;;;;;;;3.83;0.97;;;9.10;99.90;;;9.97;100.00;97334.69;5020326;28;20458;-81
2023/11/21 00:25:14;;;;;;;6.10;1.53;;;9.10;99.90;;;9.97;100.00;97337.31;5019949;28;20521;-81
2023/11/21 00:27:44;;;;;;;1.10;0.90;;;9.10;99.90;;;9.96;100.00;97337.53;5021372;28;20537;-80
2023/11/21 00:30:14;;;;;;;1.40;1.10;;;9.20;99.90;;;9.99;100.00;97334.53;5021503;28;20453;-80
2023/11/21 00:32:43;;;;;;;2.77;1.13;;;9.20;99.90;;;9.97;100.00;97341.72;5020359;28;20511;-79
2023/11/21 00:35:11;;;;;;;4.50;1.57;;;9.00;99.90;;;9.99;100.00;97339.75;5019475;28;20450;-80
2023/11/21 00:37:42;;;;;;;7.40;1.37;;;9.10;99.90;;;9.99;100.00;97332.72;5019587;28;20463;-80
2023/11/21 00:40:13;;;;;;;2.40;1.00;;;9.10;99.90;;;9.99;100.00;97337.13;5018234;28;20462;-80
2023/11/21 00:42:41;;;;;;;0.90;0.90;;;9.00;99.90;;;9.97;100.00;97334.69;5020311;28;20459;-81
2023/11/21 00:45:11;;;;;;;1.20;1.00;;;9.10;99.90;;;9.98;100.00;97331.09;5021184;28;20485;-81
2023/11/21 00:47:39;;;;;;;4.00;1.00;;;9.10;99.90;;;9.99;100.00;97337.13;5018406;28;20463;-81
2023/11/21 00:50:09;;;;;;;1.20;1.00;;;9.10;99.90;;;9.99;100.00;97339.75;5020170;28;20465;-81
2023/11/21 00:52:38;;;;;;;5.80;1.33;;;9.10;99.90;;;9.99;100.00;97339.75;5017846;28;20548;-81
2023/11/21 00:55:10;;;;;;;3.77;1.30;;;9.10;99.90;;;10.01;100.00;97342.94;5019276;28;20472;-80
2023/11/21 00:57:38;;;;;;;3.67;1.00;;;9.10;99.90;;;10.00;100.00;97343.94;5017032;28;20735;-81
2023/11/21 01:00:13;;;;;;;1.00;0.90;;;9.10;99.90;;;10.02;100.00;97349.78;5017244;28;20907;-80
2023/11/21 01:02:43;;;;;;;0.97;0.80;;;9.10;99.90;;;10.01;100.00;97350.78;5017043;28;20835;-80
2023/11/21 01:05:11;;;;;;;1.00;0.90;;;9.10;99.90;;;10.01;100.00;97356.00;5015494;28;20459;-81
2023/11/21 01:07:40;;;;;;;0.90;0.80;;;9.10;99.90;;;10.01;100.00;97358.63;5017075;28;20469;-80
2023/11/21 01:10:10;;;;;;;8.43;1.30;;;9.10;99.90;;;10.02;100.00;97357.63;5017679;28;20498;-80
2023/11/21 01:12:40;;;;;;;3.03;0.80;;;9.10;99.90;;;10.02;100.00;97355.00;5018441;28;20496;-81
2023/11/21 01:15:11;;;;;;;1.57;0.90;;;9.00;99.90;;;9.99;100.00;97360.63;5018334;28;20469;-80
2023/11/21 01:17:40;;;;;;;2.60;0.90;;;9.00;99.90;;;9.99;100.00;97368.47;5019141;28;20831;-80
2023/11/21 01:20:12;;;;;;;1.00;0.87;;;9.00;99.90;;;9.97;100.00;97360.00;5018528;28;20557;-81
2023/11/21 01:22:42;;;;;;;3.03;0.90;;;9.10;99.90;;;9.96;100.00;97374.09;5019501;28;20466;-81
2023/11/21 01:25:14;;;;;;;2.40;0.70;;;9.00;99.90;;;9.95;100.00;97370.69;5017778;28;20456;-80
2023/11/21 01:27:43;;;;;;;0.90;0.80;;;9.00;99.90;;;9.89;100.00;97368.84;5019386;28;20487;-80
2023/11/21 01:30:12;;;;;;;3.43;0.90;;;9.00;99.90;;;9.89;100.00;97368.84;5017911;28;20458;-81
2023/11/21 01:32:40;;;;;;;1.17;1.00;;;9.00;99.90;;;9.91;100.00;97369.47;5018344;28;20463;-80
2023/11/21 01:35:10;;;;;;;2.07;1.00;;;8.90;99.90;;;9.88;100.00;97376.88;5018093;28;20501;-80
2023/11/21 01:37:39;;;;;;;4.47;1.40;;;8.90;99.90;;;9.87;100.00;97370.84;5019135;28;20513;-80
2023/11/21 01:40:13;;;;;;;1.40;1.10;;;9.00;99.90;;;9.90;100.00;97380.09;5018985;28;20835;-80
2023/11/21 01:42:46;;;;;;;3.83;1.03;;;9.00;99.90;;;9.92;100.00;97372.88;5018071;28;20868;-81
2023/11/21 01:45:15;;;;;;;1.50;1.10;;;9.00;99.90;;;9.91;100.00;97377.28;5015428;28;20463;-80
2023/11/21 01:47:46;;;;;;;5.87;0.90;;;9.00;99.90;;;9.93;100.00;97377.09;5017995;28;20538;-80
2023/11/21 01:50:17;;;;;;;1.00;0.90;;;9.00;99.90;;;9.93;100.00;97377.09;5017870;28;20513;-80
2023/11/21 01:52:48;;;;;;;5.90;0.87;;;8.90;99.90;;;9.90;100.00;97380.91;5016149;28;20466;-81
2023/11/21 01:55:22;;;;;;;1.63;0.90;;;9.00;99.90;;;9.87;100.00;97375.28;5015779;28;20548;-80
2023/11/21 01:57:58;;;;;;;3.47;1.00;;;9.00;99.90;;;9.92;100.00;97378.91;5015929;28;20560;-81
2023/11/21 02:00:28;;;;;;;1.43;0.90;;;9.00;99.90;;;9.91;100.00;97386.94;5016771;28;20462;-80
2023/11/21 02:02:59;;;;;;;2.40;1.00;;;9.00;99.90;;;9.94;100.00;97387.34;5016319;28;20458;-82
2023/11/21 02:05:29;;;;;;;1.90;1.20;;;9.00;99.90;;;9.95;100.00;97383.72;5016463;28;20478;-81
2023/11/21 02:07:58;;;;;;;2.80;1.00;;;9.00;99.90;;;9.96;100.00;97387.94;5015503;28;20556;-80
2023/11/21 02:10:26;;;;;;;2.63;1.00;;;9.00;99.90;;;9.95;100.00;97386.34;5015213;28;20467;-80
2023/11/21 02:12:58;;;;;;;8.97;1.10;;;9.00;99.90;;;9.98;100.00;97392.97;5017827;28;20572;-80
2023/11/21 02:15:28;;;;;;;1.10;1.00;;;9.00;99.90;;;9.96;100.00;97390.53;5017810;28;20469;-80
2023/11/21 02:17:58;;;;;;;3.33;1.37;;;9.10;99.90;;;9.99;100.00;97394.59;5018386;28;20482;-80
2023/11/21 02:20:29;;;;;;;4.57;1.20;;;9.10;99.90;;;10.00;100.00;97401.41;5016876;28;20470;-80
2023/11/21 02:22:59;;;;;;;1.20;1.10;;;9.10;99.90;;;9.97;100.00;97396.56;5016480;28;20532;-80
2023/11/21 02:25:31;;;;;;;1.67;1.27;;;9.10;99.90;;;9.94;100.00;97392.56;5016174;28;20481;-80
2023/11/21 02:28:02;;;;;;;2.53;1.20;;;9.00;99.90;;;9.92;100.00;97402.41;5018312;28;20555;-81
2023/11/21 02:30:31;;;;;;;1.90;1.60;;;9.00;99.90;;;9.94;100.00;97403.00;5014723;28;20521;-80
2023/11/21 02:33:01;;;;;;;1.30;1.17;;;9.00;99.90;;;9.97;100.00;97401.78;5016391;28;21133;-81
2023/11/21 02:35:31;;;;;;;2.93;1.20;;;9.10;99.90;;;9.95;100.00;97404.63;5016769;28;20487;-80
2023/11/21 02:38:02;;;;;;;2.40;1.10;;;9.10;99.90;;;9.97;100.00;97402.59;5019167;28;20465;-81
2023/11/21 02:40:31;;;;;;;1.50;1.40;;;9.10;99.90;;;9.97;100.00;97412.25;5017187;28;20470;-80
2023/11/21 02:42:59;;;;;;;3.10;1.50;;;9.10;99.90;;;9.96;100.00;97413.28;5015572;28;21117;-81
2023/11/21 02:45:28;;;;;;;5.13;1.57;;;9.20;99.90;;;9.95;100.00;97420.28;5016635;28;20567;-81
2023/11/21 02:47:57;;;;;;;2.67;1.50;;;9.20;99.90;;;9.98;100.00;97419.09;5017955;28;20504;-80
2023/11/21 02:50:27;;;;;;;0.90;0.70;;;9.20;99.90;;;9.99;100.00;97415.47;5014122;28;20582;-80
2023/11/21 02:52:57;;;;;;;0.70;0.70;;;9.20;99.90;;;9.93;100.00;97424.91;5015221;28;20991;-81
2023/11/21 02:55:27;;;;;;;2.20;0.70;;;9.20;99.90;;;9.89;100.00;97421.06;5015983;28;20478;-81
2023/11/21 02:57:57;;;;;;;2.23;0.73;;;9.20;99.90;;;9.90;100.00;97420.06;5019298;28;20490;-80
2023/11/21 03:00:26;;;;;;;1.63;0.80;;;9.20;99.90;;;9.87;100.00;97423.09;5017101;28;21052;-80
2023/11/21 03:02:56;;;;;;;3.00;0.73;;;9.10;99.90;;;9.89;100.00;97420.28;5015219;28;20469;-80
2023/11/21 03:05:24;;;;;;;0.90;0.60;;;9.20;99.90;;;9.84;100.00;97430.50;5016165;28;20474;-81
2023/11/21 03:07:53;;;;;;;1.00;0.70;;;9.10;99.90;;;9.82;100.00;97428.06;5015491;28;20616;-81
2023/11/21 03:10:21;;;;;;;1.03;0.80;;;9.10;99.90;;;9.84;100.00;97433.94;5016553;28;20498;-80
2023/11/21 03:12:52;;;;;;;0.80;0.70;;;9.10;99.90;;;9.84;100.00;97443.56;5017676;28;20858;-81
2023/11/21 03:15:21;;;;;;;0.90;0.60;;;9.10;99.90;;;9.81;100.00;97442.16;5015924;28;20467;-81
2023/11/21 03:17:49;;;;;;;0.70;0.70;;;9.10;99.90;;;9.79;100.00;97446.75;5016355;28;20552;-81
2023/11/21 03:20:19;;;;;;;0.70;0.67;;;8.90;99.90;;;9.79;100.00;97451.19;5017066;28;20466;-81
2023/11/21 03:22:47;;;;;;;0.70;0.70;;;9.10;99.90;;;9.79;100.00;97446.75;5016239;28;20466;-80
2023/11/21 03:25:17;;;;;;;0.80;0.67;;;9.00;99.90;;;9.79;100.00;97451.19;5015512;28;20823;-80
2023/11/21 03:27:46;;;;;;;0.90;0.73;;;9.00;99.90;;;9.78;100.00;97449.56;5014912;28;21049;-80
2023/11/21 03:30:16;;;;;;;6.53;1.03;;;9.00;99.90;;;9.76;100.00;97457.59;5014843;28;21134;-81
2023/11/21 03:32:45;;;;;;;2.93;0.70;;;9.10;99.90;;;9.78;100.00;97466.06;5016768;28;20462;-81
2023/11/21 03:35:14;;;;;;;1.93;0.90;;;9.10;99.90;;;9.69;100.00;97462.00;5017213;28;20823;-80
2023/11/21 03:37:43;;;;;;;0.80;0.70;;;8.90;99.90;;;9.66;100.00;97472.81;5014388;28;20487;-80
2023/11/21 03:40:13;;;;;;;1.20;0.90;;;9.00;99.90;;;9.61;100.00;97470.00;5016652;28;20541;-80
2023/11/21 03:42:42;;;;;;;1.10;0.90;;;8.90;99.90;;;9.65;100.00;97465.19;5016910;28;20939;-80
2023/11/21 03:45:12;;;;;;;0.90;0.80;;;8.90;99.90;;;9.61;100.00;97462.97;5015333;28;20471;-80
2023/11/21 03:47:43;;;;;;;0.77;0.67;;;8.90;99.90;;;9.63;100.00;97467.19;5018406;28;20501;-80
2023/11/21 03:50:12;;;;;;;2.87;0.90;;;8.90;99.90;;;9.61;100.00;97467.41;5018983;28;20490;-80
2023/11/21 03:52:40;;;;;;;1.00;0.83;;;8.90;99.90;;;9.66;100.00;97469.41;5018541;28;20945;-81
2023/11/21 03:55:10;;;;;;;10.17;4.87;;;8.90;99.90;;;9.57;100.00;97485.25;5018226;28;20461;-78
2023/11/21 03:57:39;;;;;;;6.33;1.63;;;8.90;99.90;;;9.61;100.00;97480.44;5019296;28;20466;-81
2023/11/21 04:00:10;;;;;;;3.27;1.33;;;8.90;99.90;;;9.63;100.00;97482.84;5018083;28;20470;-80
2023/11/21 04:02:39;;;;;;;2.00;1.00;;;8.90;99.90;;;9.64;100.00;97485.28;5019789;28;20462;-80
2023/11/21 04:05:10;;;;;;;3.67;1.10;;;8.90;99.90;;;9.56;100.00;97488.03;5018045;28;20476;-80
2023/11/21 04:07:39;;;;;;;1.00;0.90;;;8.80;99.90;;;9.59;100.00;97491.06;5020368;28;20483;-81
2023/11/21 04:10:12;;;;;;;3.90;1.70;;;8.90;99.90;;;9.65;100.00;97506.97;5014758;28;20512;-78
2023/11/21 04:12:41;;;;;;;2.47;1.60;;;9.00;99.90;;;9.65;100.00;97499.13;5015569;28;20631;-81
2023/11/21 04:15:12;;;;;;;1.40;1.00;;;8.90;99.90;;;9.64;100.00;97502.75;5015347;28;20474;-81
2023/11/21 04:17:41;;;;;;;1.67;1.57;;;8.90;99.90;;;9.60;100.00;97505.75;5017563;28;20501;-82
2023/11/21 04:20:15;;;;;;;167.27;73.87;;;8.90;99.90;;;9.62;100.00;97508.13;5015812;28;20493;-80
2023/11/21 04:22:45;;;;;;;2.83;1.60;;;8.90;99.90;;;9.62;100.00;97515.97;5014761;28;20510;-80
2023/11/21 04:25:16;;;;;;;1.10;1.00;;;8.80;99.90;;;9.61;100.00;97522.22;5014313;28;20970;-81
2023/11/21 04:27:46;;;;;;;1.50;1.20;;;8.80;99.90;;;9.60;100.00;97524.00;5016588;28;20491;-80
2023/11/21 04:30:16;;;;;;;1.73;1.20;;;8.70;99.90;;;9.66;100.00;97535.47;5017304;28;20458;-81
2023/11/21 04:32:44;;;;;;;14.30;1.30;;;8.80;99.90;;;9.67;100.00;97528.44;5016739;28;20467;-80
2023/11/21 04:35:14;;;;;;;1.73;1.10;;;8.80;99.90;;;9.66;100.00;97521.63;5017553;28;20470;-79
2023/11/21 04:37:43;;;;;;;0.90;0.80;;;8.90;99.90;;;9.66;100.00;97526.84;5017287;28;20457;-81
2023/11/21 04:40:13;;;;;;;1.00;0.90;;;9.00;99.90;;;9.68;100.00;97530.06;5017546;28;20539;-77
2023/11/21 04:42:41;;;;;;;13.20;4.17;;;8.90;99.90;;;9.64;100.00;97529.66;5015480;28;20528;-81
2023/11/21 04:45:11;;;;;;;2.70;1.50;;;8.90;99.90;;;9.66;100.00;97539.88;5019104;28;20470;-80
2023/11/21 04:47:41;;;;;;;7.33;1.10;;;8.80;99.90;;;9.65;100.00;97540.91;5019179;28;20597;-80
2023/11/21 04:50:11;;;;;;;1.20;1.10;;;8.70;99.90;;;9.63;100.00;97542.88;5018915;28;20486;-80
2023/11/21 04:52:41;;;;;;;1.70;0.93;;;8.70;99.90;;;9.62;100.00;97544.69;5017216;28;20985;-80
2023/11/21 04:55:10;;;;;;;6.60;1.20;;;8.80;99.90;;;9.61;100.00;97549.09;5016928;28;20474;-80
2023/11/21 04:57:41;;;;;;;1.80;1.00;;;8.90;99.90;;;9.64;100.00;97549.72;5017185;28;20485;-79
2023/11/21 05:00:12;;;;;;;3.70;1.20;;;8.80;99.90;;;9.60;100.00;97551.91;5016582;28;20458;-80
2023/11/21 05:02:44;;;;;;;1.37;1.00;;;8.90;99.90;;;9.62;100.00;97555.13;5014916;28;20493;-80
2023/11/21 05:05:14;;;;;;;1.40;1.30;;;8.90;99.90;;;9.60;100.00;97557.13;5016465;28;21000;-80
2023/11/21 05:07:44;;;;;;;3.00;1.27;;;8.90;99.90;;;9.49;100.00;97550.66;5018314;28;21071;-80
2023/11/21 05:10:14;;;;;;;1.40;1.30;;;8.90;99.90;;;9.45;100.00;97561.66;5017398;28;20461;-80
2023/11/21 05:12:46;;;;;;;3.27;1.37;;;8.90;99.90;;;9.51;100.00;97564.31;5018125;28;20917;-79
2023/11/21 05:15:17;;;;;;;2.13;1.43;;;8.90;99.90;;;9.51;100.00;97559.09;5018919;28;20565;-79
2023/11/21 05:17:46;;;;;;;1.53;1.43;;;8.80;99.90;;;9.47;100.00;97568.31;5021100;28;21007;-80
2023/11/21 05:20:20;;;;;;;1.50;1.40;;;8.70;99.90;;;9.46;100.00;97566.69;5016913;28;21093;-80
2023/11/21 05:22:51;;;;;;;5.07;1.53;;;8.70;99.90;;;9.49;100.00;97575.94;5016126;28;20560;-79
2023/11/21 05:25:20;;;;;;;2.87;1.53;;;8.70;99.90;;;9.49;100.00;97581.97;5018606;28;20480;-81
2023/11/21 05:27:49;;;;;;;2.40;1.20;;;8.70;99.90;;;9.50;100.00;97578.38;5017552;28;20472;-81
2023/11/21 05:30:17;;;;;;;2.00;1.73;;;8.80;99.90;;;9.45;100.00;97591.16;5017516;28;20458;-80
2023/11/21 05:32:46;;;;;;;8.40;3.83;;;8.80;99.90;;;9.46;100.00;97598.00;5015870;28;20470;-80
2023/11/21 05:35:16;;;;;;;5.80;2.27;;;8.80;99.90;;;9.41;100.00;97591.75;5016477;28;21090;-81
2023/11/21 05:37:46;;;;;;;2.50;1.60;;;8.70;99.90;;;9.44;100.00;97594.00;5016760;28;20873;-78
2023/11/21 05:40:17;;;;;;;2.10;1.50;;;8.70;99.90;;;9.45;100.00;97596.41;5018455;28;20479;-79
2023/11/21 05:42:46;;;;;;;1.73;1.63;;;8.80;99.90;;;9.47;100.00;97599.63;5018073;28;20502;-79
2023/11/21 05:45:16;;;;;;;3.47;1.87;;;8.70;99.90;;;9.45;100.00;97601.59;5018758;28;20469;-79
2023/11/21 05:47:50;;;;;;;2.23;1.90;;;8.60;99.90;;;9.45;100.00;97598.19;5018613;28;20474;-78
2023/11/21 05:50:19;;;;;;;2.97;1.30;;;8.70;99.90;;;9.45;100.00;97596.41;5017985;28;20463;-78
2023/11/21 05:52:48;;;;;;;5.00;1.97;;;8.60;99.90;;;9.45;100.00;97601.59;5017819;28;20462;-78
2023/11/21 05:55:21;;;;;;;2.63;1.40;;;8.70;99.90;;;9.44;100.00;97605.22;5019594;28;20489;-78
2023/11/21 05:57:49;;;;;;;4.80;2.00;;;8.70;99.90;;;9.42;100.00;97598.56;5020042;28;20473;-78
2023/11/21 06:00:20;;;;;;;2.57;2.10;;;8.70;99.90;;;9.37;100.00;97601.75;5018994;28;20463;-79
2023/11/21 06:02:52;;;;;;;2.00;1.80;;;8.70;99.90;;;9.37;100.00;97604.34;5018521;28;20466;-79
2023/11/21 06:05:24;;;;;;;2.07;1.70;;;8.60;99.90;;;9.41;100.00;97604.78;5019648;28;21036;-79
2023/11/21 06:07:55;;;;;;;2.57;1.70;;;8.70;99.90;;;9.36;100.00;97613.19;5018570;28;20466;-79
2023/11/21 06:10:26;;;;;;;2.77;1.70;;;8.70;99.90;;;9.33;100.00;97608.38;5017312;28;20534;-80
2023/11/21 06:12:56;;;;;;;2.43;1.80;;;8.60;99.90;;;9.37;100.00;97611.41;5018464;28;20481;-79
2023/11/21 06:15:27;;;;;;;3.40;2.10;;;8.70;99.90;;;9.36;100.00;97618.41;5018279;28;20489;-79
2023/11/21 06:17:56;;;;;;;2.73;2.10;;;8.70;99.90;;;9.34;100.00;97625.63;5016879;28;20467;-79
2023/11/21 06:20:24;;;;;;;1.90;1.70;;;8.70;99.90;;;9.35;100.00;97618.59;5017936;28;20541;-79
2023/11/21 06:22:53;;;;;;;5.53;2.17;;;8.60;99.90;;;9.32;100.00;97630.22;5017777;28;20473;-78
2023/11/21 06:25:22;;;;;;;1.47;1.37;;;8.60;99.90;;;9.33;100.00;97633.66;5019518;28;20910;-79
2023/11/21 06:27:53;;;;;;;5.73;1.87;;;8.70;99.90;;;9.33;100.00;97634.47;5018659;28;20463;-79
2023/11/21 06:30:23;;;;;;;2.70;2.07;;;8.70;99.90;;;9.31;100.00;97641.66;5019365;28;20483;-78
2023/11/21 06:32:52;;;;;;;2.23;1.70;;;8.80;99.90;;;9.31;100.00;97651.28;5017215;28;20845;-79
2023/11/21 06:35:21;;;;;;;2.97;1.80;;;8.70;99.90;;;9.23;100.00;97660.06;5017614;28;20454;-79
2023/11/21 06:37:51;;;;;;;3.17;2.17;;;8.60;99.90;;;9.27;100.00;97655.25;5017484;28;20468;-79
2023/11/21 06:40:20;;;;;;;2.97;2.07;;;8.60;99.90;;;9.29;100.00;97668.94;5019016;28;20537;-79
2023/11/21 06:42:50;;;;;;;4.03;2.37;;;8.60;99.90;;;9.26;100.00;97664.09;5015727;28;20465;-79
2023/11/21 06:45:21;;;;;;;2.40;2.00;;;8.60;99.90;;;9.28;100.00;97668.13;5018543;28;20466;-79
2023/11/21 06:47:50;;;;;;;2.13;1.93;;;8.60;99.90;;;9.25;100.00;97667.69;5018372;28;20474;-79
2023/11/21 06:50:19;;;;;;;6.90;1.97;;;8.60;99.90;;;9.23;100.00;97665.28;5019053;28;20494;-79
2023/11/21 06:52:48;;;;;;;2.63;2.13;;;8.50;99.90;;;9.23;100.00;97675.72;5016629;28;20571;-80
2023/11/21 06:55:17;;;;;;;5.17;1.73;;;8.60;99.90;;;9.26;100.00;97669.31;5017721;28;20470;-79
2023/11/21 06:57:48;;;;;;;3.60;2.10;;;8.70;99.90;;;9.27;100.00;97684.75;5019441;28;20466;-79
2023/11/21 07:00:20;;;;;;;2.20;2.00;;;8.70;99.90;;;9.29;100.00;97693.22;5017298;28;20474;-79
2023/11/21 07:02:49;;;;;;;2.43;1.90;;;8.60;99.90;;;9.30;100.00;97696.66;5015330;28;20521;-79
2023/11/21 07:05:20;;;;;;;7.03;1.50;;;8.50;99.90;;;9.32;100.00;97700.66;5017636;28;20517;-79
2023/11/21 07:07:53;;;;;;;4.47;1.67;;;8.60;99.90;;;9.29;100.00;97703.66;5014635;28;20483;-79
2023/11/21 07:10:22;;;;;;;2.10;1.90;;;8.60;99.90;;;9.31;100.00;97711.28;5016473;28;20501;-78
2023/11/21 07:12:52;;;;;;;2.10;1.90;;;8.60;99.90;;;9.32;100.00;97716.31;5016375;28;20478;-79
2023/11/21 07:15:22;;;;;;;2.20;2.00;;;8.60;99.90;;;9.31;100.00;97712.09;5015117;28;20496;-79
2023/11/21 07:17:51;;;;;;;6.20;2.53;;;8.50;99.90;;;9.32;100.00;97721.53;5014464;28;20466;-79
2023/11/21 07:20:23;;;;;;;3.10;2.10;;;8.60;99.90;;;9.36;100.00;97728.00;5016147;28;20602;-79
2023/11/21 07:22:51;;;;;;;3.23;2.37;;;8.60;99.90;;;9.28;100.00;97725.53;5016482;28;20474;-79
2023/11/21 07:25:22;;;;;;;2.87;1.90;;;8.50;99.90;;;9.29;100.00;97734.97;5017388;28;20963;-79
2023/11/21 07:27:50;;;;;;;1.90;1.70;;;8.50;99.90;;;9.32;100.00;97742.41;5017911;28;20454;-79
2023/11/21 07:30:22;;;;;;;1.93;1.47;;;8.60;99.90;;;9.27;100.00;97752.59;5015822;28;20609;-79
2023/11/21 07:32:51;;;;;;;7.77;2.37;;;8.60;99.90;;;9.24;100.00;97760.78;5015359;28;20463;-79
2023/11/21 07:35:19;;;;;;;4.63;2.20;;;8.50;99.90;;;9.26;100.00;97756.22;5015221;28;20467;-79
2023/11/21 07:37:48;;;;;;;1.63;1.53;;;8.60;99.90;;;9.29;100.00;97758.44;5017446;28;20814;-79
2023/11/21 07:40:17;;;;;;;3.30;2.13;;;8.70;99.90;;;9.32;100.00;97763.28;5014625;28;20552;-79
2023/11/21 07:42:46;;;;;;;2.03;1.70;;;8.70;99.90;;;9.27;100.00;97770.03;5016374;28;20910;-79
2023/11/21 07:45:15;;;;;;;1.80;1.50;;;8.50;99.90;;;9.26;100.00;97769.25;5015572;28;21355;-79
2023/11/21 07:47:45;;;;;;;1.77;1.60;;;8.50;99.90;;;9.31;100.00;97771.28;5015564;28;20470;-79
2023/11/21 07:50:14;;;;;;;1.53;1.43;;;8.50;99.90;;;9.32;100.00;97772.91;5015593;28;20498;-79
2023/11/21 07:52:43;;;;;;;2.33;1.43;;;8.50;99.90;;;9.30;100.00;97778.31;5017189;28;20973;-79
2023/11/21 07:55:12;;;;;;;8.93;1.87;;;8.50;99.90;;;9.37;100.00;97776.56;5018766;28;20462;-79
2023/11/21 07:57:40;;;;;;;2.77;1.80;;;8.60;99.90;;;9.38;100.00;97775.59;5017986;28;20463;-79
2023/11/21 08:00:12;;;;;;;4.97;2.20;;;8.60;99.90;;;9.39;100.00;97777.22;5016202;28;20470;-79
2023/11/21 08:02:42;;;;;;;2.77;1.57;;;8.70;99.90;;;9.42;100.00;97783.84;5018851;28;20477;-79
2023/11/21 08:05:13;;;;;;;1.93;1.73;;;8.70;99.90;;;9.45;100.00;97794.72;5016728;28;20459;-79
2023/11/21 08:07:52;;;;;;;7.47;1.40;;;8.70;99.90;;;9.45;100.00;97799.13;5015671;28;20498;-79
2023/11/21 08:10:22;;;;;;;1.83;1.67;;;8.70;99.90;;;9.46;100.00;97806.78;5017437;28;20498;-79
2023/11/21 08:12:51;;;;;;;1.20;1.10;;;8.70;99.90;;;9.46;100.00;97804.19;5016645;28;20465;-79
2023/11/21 08:15:20;;;;;;;1.50;1.23;;;8.60;99.90;;;9.42;100.00;97805.53;5017027;28;20470;-79
2023/11/21 08:17:49;;;;;;;3.10;1.50;;;8.60;99.90;;;9.46;100.00;97812.00;5017541;28;21025;-79
2023/11/21 08:20:19;;;;;;;3.40;1.53;;;8.60;99.90;;;9.46;100.00;97822.44;5017433;28;20469;-79
2023/11/21 08:22:48;;;;;;;2.23;1.37;;;8.70;99.90;;;9.51;100.00;97825.28;5019031;28;21073;-79
2023/11/21 08:25:19;;;;;;;1.63;1.53;;;8.70;99.90;;;9.51;100.00;97825.28;5017901;28;20481;-79
2023/11/21 08:27:49;;;;;;;5.13;1.97;;;8.80;99.90;;;9.56;100.00;97833.41;5016112;28;20463;-79
2023/11/21 08:30:19;;;;;;;3.00;1.30;;;8.80;99.90;;;9.53;100.00;97836.38;5015688;28;20582;-77
2023/11/21 08:32:48;;;;;;;1.60;1.43;;;8.80;99.90;;;9.56;100.00;97838.63;5019269;28;20458;-79
2023/11/21 08:35:19;;;;;;;2.00;1.30;;;8.80;99.90;;;9.54;100.00;97839.81;5019516;28;20463;-79
2023/11/21 08:37:48;;;;;;;2.97;1.70;;;8.80;99.90;;;9.56;100.00;97835.19;5021275;28;20463;-79
2023/11/21 08:40:17;;;;;;;1.93;1.53;;;8.80;99.90;;;9.60;100.00;97837.25;5018733;28;21094;-79
2023/11/21 08:42:46;;;;;;;1.33;1.23;;;8.80;99.90;;;9.61;100.00;97836.25;5018929;28;20477;-79
2023/11/21 08:45:17;;;;;;;3.47;1.77;;;8.90;99.90;;;9.64;100.00;97839.50;5018794;28;20825;-79
2023/11/21 08:47:50;;;;;;;4.60;1.50;;;8.90;99.90;;;9.63;100.00;97835.25;5021440;28;20956;-79
2023/11/21 08:50:20;;;;;;;3.33;1.67;;;8.80;99.90;;;9.60;100.00;97845.09;5021179;28;21000;-79
2023/11/21 08:52:51;;;;;;;2.80;1.80;;;9.00;99.90;;;9.57;100.00;97840.25;5019475;28;20943;-79
2023/11/21 08:55:20;;;;;;;3.50;1.63;;;8.90;99.90;;;9.54;100.00;97842.41;5020694;28;20952;-79
2023/11/21 08:57:48;;;;;;;1.87;1.67;;;8.90;99.90;;;9.49;100.00;97837.75;5021356;28;20459;-80
2023/11/21 09:00:19;;;;;;;4.17;2.10;;;8.70;99.90;;;9.53;100.00;97846.81;5019582;28;20463;-79
2023/11/21 09:02:50;;;;;;;2.80;1.93;;;8.80;99.90;;;9.60;100.00;97847.69;5019153;28;20981;-79
2023/11/21 09:05:21;;;;;;;2.73;1.70;;;8.90;99.90;;;9.62;100.00;97837.06;5020424;28;20455;-79
2023/11/21 09:07:49;;;;;;;2.80;2.20;;;9.00;99.90;;;9.64;100.00;97847.31;5021432;28;20852;-79
2023/11/21 09:10:19;;;;;;;4.33;2.80;;;8.90;99.90;;;9.65;100.00;97852.34;5020102;28;20501;-79
2023/11/21 09:12:47;;;;;;;4.10;2.50;;;9.00;99.90;;;9.66;100.00;97853.16;5019958;28;20458;-79
2023/11/21 09:15:16;;;;;;;4.90;2.70;;;9.00;99.90;;;9.67;100.00;97850.38;5019336;28;20477;-79
2023/11/21 09:17:45;;;;;;;3.53;2.30;;;9.00;99.90;;;9.68;100.00;97852.00;5020031;28;20470;-79
2023/11/21 09:20:14;;;;;;;2.93;2.30;;;9.00;99.90;;;9.70;100.00;97857.81;5019833;28;20997;-79
2023/11/21 09:22:46;;;;;;;4.23;2.70;;;9.10;99.90;;;9.73;100.00;97861.84;5019174;28;20466;-79
2023/11/21 09:25:15;;;;;;;3.40;2.80;;;9.00;99.90;;;9.75;100.00;97863.31;5018628;28;20469;-79
2023/11/21 09:27:45;;;;;;;3.00;2.67;;;9.20;99.90;;;9.81;100.00;97872.19;5018736;28;20492;-79
2023/11/21 09:30:15;;;;;;;6.93;2.67;;;9.20;99.90;;;9.81;100.00;97872.19;5018647;28;20494;-78
2023/11/21 09:32:45;;;;;;;4.27;3.10;;;9.20;99.90;;;9.85;100.00;97878.66;5017763;28;20466;-79
2023/11/21 09:35:15;;;;;;;4.90;3.13;;;9.20;99.90;;;9.85;100.00;97878.66;5018164;28;20469;-79
2023/11/21 09:37:46;;;;;;;4.33;3.27;;;9.30;99.90;;;9.91;100.00;97883.13;5017397;28;20466;-79
2023/11/21 09:40:23;;;;;;;4.90;3.10;;;9.30;99.90;;;9.95;100.00;97887.81;5017217;28;20838;-79
2023/11/21 09:42:58;;;;;;;5.40;2.70;;;9.30;99.90;;;9.92;100.00;97893.41;5017146;28;20478;-79
2023/11/21 09:45:29;;;;;;;6.03;3.27;;;9.30;99.90;;;9.86;100.00;97888.91;5019128;28;20524;-79
2023/11/21 09:47:58;;;;;;;4.27;3.10;;;9.30;99.90;;;9.89;100.00;97903.41;5017354;28;20459;-79
2023/11/21 09:50:28;;;;;;;5.00;3.50;;;9.30;99.90;;;9.91;100.00;97909.25;5018986;28;20594;-79
2023/11/21 09:53:11;;;;;;;6.17;3.70;;;9.20;99.90;;;9.94;100.00;97916.72;5017728;28;20470;-79
2023/11/21 09:55:43;;;;;;;5.77;4.13;;;9.30;99.90;;;9.95;100.00;97913.13;5019169;28;20473;-79
2023/11/21 09:58:12;;;;;;;5.63;3.70;;;9.30;99.90;;;9.95;100.00;97916.53;5017792;28;20478;-79
2023/11/21 10:00:46;;;;;;;9.33;4.13;;;9.30;99.90;;;9.93;100.00;97921.13;5017108;28;20892;-79
2023/11/21 10:03:15;;;;;;;6.77;3.80;;;9.40;99.90;;;9.95;100.00;97926.19;5018437;28;21001;-79
2023/11/21 10:05:45;;;;;;;5.03;3.70;;;9.30;99.90;;;9.97;100.00;97926.78;5017636;28;20496;-79
2023/11/21 10:08:16;;;;;;;4.93;3.80;;;9.40;99.90;;;10.00;100.00;97934.25;5017397;28;20590;-79
2023/11/21 10:10:49;;;;;;;4.10;3.37;;;9.40;99.90;;;10.07;100.00;97932.50;5017247;28;20619;-79
2023/11/21 10:13:19;;;;;;;7.17;3.80;;;9.40;99.90;;;10.06;100.00;97928.31;5016540;28;20462;-79
2023/11/21 10:15:52;;;;;;;3.97;2.90;;;9.50;99.90;;;10.05;100.00;97931.91;5017349;28;20496;-79
2023/11/21 10:18:25;;;;;;;4.83;3.63;;;9.50;99.90;;;10.05;100.00;97937.13;5017974;28;20467;-79
2023/11/21 10:20:56;;;;;;;4.63;3.80;;;9.50;99.90;;;9.99;100.00;97936.06;5017478;28;20484;-80
2023/11/21 10:23:26;;;;;;;4.80;4.30;;;9.30;99.90;;;10.01;100.00;97938.47;5016580;28;20471;-79
2023/11/21 10:25:56;;;;;;;5.20;3.33;;;9.40;99.90;;;10.05;100.00;97939.75;5019083;28;20500;-79
2023/11/21 10:28:37;;;;;;;6.33;4.23;;;9.40;99.90;;;10.09;100.00;97944.41;5019228;28;21087;-79
2023/11/21 10:31:09;;;;;;;9.97;4.40;;;9.40;99.90;;;10.09;100.00;97948.81;5017258;28;20500;-79
2023/11/21 10:33:37;;;;;;;6.30;4.60;;;9.40;99.90;;;10.05;100.00;97951.00;5018468;28;20486;-78
2023/11/21 10:36:08;;;;;;;6.70;3.80;;;9.40;99.90;;;10.05;100.00;97951.00;5018330;28;20462;-79